sensor_id;sensor_type;location;lat;lon;timestamp;temperature;humidity
580;DHT22;276;48.392;9.950;2022-08-21T00:01:55;18.80;99.90
580;DHT22;276;48.392;9.950;2022-08-21T00:04:21;18.80;99.90
580;DHT22;276;48.392;9.950;2022-08-21T00:06:50;18.80;99.90
580;DHT22;276;48.392;9.950;2022-08-21T00:09:17;18.80;99.90
580;DHT22;276;48.392;9.950;2022-08-21T00:11:46;18.80;99.90
580;DHT22;276;48.392;9.950;2022-08-21T00:14:13;18.70;99.90
580;DHT22;276;48.392;9.950;2022-08-21T00:16:42;18.70;99.90
580;DHT22;276;48.392;9.950;2022-08-21T00:19:08;18.70;99.90
580;DHT22;276;48.392;9.950;2022-08-21T00:21:38;18.70;99.90
580;DHT22;276;48.392;9.950;2022-08-21T00:24:05;18.70;99.90
580;DHT22;276;48.392;9.950;2022-08-21T00:26:33;18.70;99.90
580;DHT22;276;48.392;9.950;2022-08-21T00:28:58;18.60;99.90
580;DHT22;276;48.392;9.950;2022-08-21T00:31:24;18.60;99.90
580;DHT22;276;48.392;9.950;2022-08-21T00:33:50;18.60;99.90
580;DHT22;276;48.392;9.950;2022-08-21T00:36:18;18.60;99.90
580;DHT22;276;48.392;9.950;2022-08-21T00:38:43;18.60;99.90
580;DHT22;276;48.392;9.950;2022-08-21T00:41:12;18.50;99.90
580;DHT22;276;48.392;9.950;2022-08-21T00:43:40;18.50;99.90
580;DHT22;276;48.392;9.950;2022-08-21T00:46:08;18.50;99.90
580;DHT22;276;48.392;9.950;2022-08-21T00:48:34;18.50;99.90
580;DHT22;276;48.392;9.950;2022-08-21T00:51:07;18.50;99.90
580;DHT22;276;48.392;9.950;2022-08-21T00:53:41;18.50;99.90
580;DHT22;276;48.392;9.950;2022-08-21T00:56:10;18.40;99.90
580;DHT22;276;48.392;9.950;2022-08-21T00:58:37;18.40;99.90
580;DHT22;276;48.392;9.950;2022-08-21T01:01:05;18.40;99.90
580;DHT22;276;48.392;9.950;2022-08-21T01:03:34;18.40;99.90
580;DHT22;276;48.392;9.950;2022-08-21T01:06:04;18.40;99.90
580;DHT22;276;48.392;9.950;2022-08-21T01:08:30;18.40;99.90
580;DHT22;276;48.392;9.950;2022-08-21T01:11:00;18.30;99.90
580;DHT22;276;48.392;9.950;2022-08-21T01:13:31;18.30;99.90
580;DHT22;276;48.392;9.950;2022-08-21T01:15:59;18.30;99.90
580;DHT22;276;48.392;9.950;2022-08-21T01:18:31;18.30;99.90
580;DHT22;276;48.392;9.950;2022-08-21T01:21:13;18.30;99.90
580;DHT22;276;48.392;9.950;2022-08-21T01:23:42;18.20;99.90
580;DHT22;276;48.392;9.950;2022-08-21T01:26:09;18.20;99.90
580;DHT22;276;48.392;9.950;2022-08-21T01:28:40;18.20;99.90
580;DHT22;276;48.392;9.950;2022-08-21T01:31:09;18.20;99.90
580;DHT22;276;48.392;9.950;2022-08-21T01:33:37;18.10;99.90
580;DHT22;276;48.392;9.950;2022-08-21T01:36:03;18.10;99.90
580;DHT22;276;48.392;9.950;2022-08-21T01:38:31;18.10;99.90
580;DHT22;276;48.392;9.950;2022-08-21T01:41:02;18.10;99.90
580;DHT22;276;48.392;9.950;2022-08-21T01:43:28;18.10;99.90
580;DHT22;276;48.392;9.950;2022-08-21T01:45:53;18.00;99.90
580;DHT22;276;48.392;9.950;2022-08-21T01:48:19;18.00;99.90
580;DHT22;276;48.392;9.950;2022-08-21T01:50:45;18.00;99.90
580;DHT22;276;48.392;9.950;2022-08-21T01:53:13;18.00;99.90
580;DHT22;276;48.392;9.950;2022-08-21T01:55:43;18.00;99.90
580;DHT22;276;48.392;9.950;2022-08-21T01:58:11;17.90;99.90
580;DHT22;276;48.392;9.950;2022-08-21T02:00:37;17.90;99.90
580;DHT22;276;48.392;9.950;2022-08-21T02:03:03;17.90;99.90
580;DHT22;276;48.392;9.950;2022-08-21T02:05:31;17.80;99.90
580;DHT22;276;48.392;9.950;2022-08-21T02:07:57;17.80;99.90
580;DHT22;276;48.392;9.950;2022-08-21T02:10:26;17.80;99.90
580;DHT22;276;48.392;9.950;2022-08-21T02:12:52;17.80;99.90
580;DHT22;276;48.392;9.950;2022-08-21T02:15:19;17.70;99.90
580;DHT22;276;48.392;9.950;2022-08-21T02:17:48;17.70;99.90
580;DHT22;276;48.392;9.950;2022-08-21T02:20:20;17.70;99.90
580;DHT22;276;48.392;9.950;2022-08-21T02:22:46;17.70;99.90
580;DHT22;276;48.392;9.950;2022-08-21T02:25:15;17.70;99.90
580;DHT22;276;48.392;9.950;2022-08-21T02:27:42;17.70;99.90
580;DHT22;276;48.392;9.950;2022-08-21T02:30:12;17.70;99.90
580;DHT22;276;48.392;9.950;2022-08-21T02:32:40;17.60;99.90
580;DHT22;276;48.392;9.950;2022-08-21T02:35:08;17.70;99.90
580;DHT22;276;48.392;9.950;2022-08-21T02:37:42;17.60;99.90
580;DHT22;276;48.392;9.950;2022-08-21T02:40:08;17.60;99.90
580;DHT22;276;48.392;9.950;2022-08-21T02:42:36;17.60;99.90
580;DHT22;276;48.392;9.950;2022-08-21T02:45:04;17.50;99.90
580;DHT22;276;48.392;9.950;2022-08-21T02:47:30;17.50;99.90
580;DHT22;276;48.392;9.950;2022-08-21T02:49:58;17.50;99.90
580;DHT22;276;48.392;9.950;2022-08-21T02:52:26;17.50;99.90
580;DHT22;276;48.392;9.950;2022-08-21T02:54:51;17.50;99.90
580;DHT22;276;48.392;9.950;2022-08-21T02:57:20;17.50;99.90
580;DHT22;276;48.392;9.950;2022-08-21T02:59:48;17.50;99.90
580;DHT22;276;48.392;9.950;2022-08-21T03:02:13;17.50;99.90
580;DHT22;276;48.392;9.950;2022-08-21T03:04:42;17.50;99.90
580;DHT22;276;48.392;9.950;2022-08-21T03:07:07;17.40;99.90
580;DHT22;276;48.392;9.950;2022-08-21T03:09:35;17.40;99.90
580;DHT22;276;48.392;9.950;2022-08-21T03:12:01;17.40;99.90
580;DHT22;276;48.392;9.950;2022-08-21T03:14:27;17.40;99.90
580;DHT22;276;48.392;9.950;2022-08-21T03:16:55;17.40;99.90
580;DHT22;276;48.392;9.950;2022-08-21T03:19:20;17.40;99.90
580;DHT22;276;48.392;9.950;2022-08-21T03:21:51;17.40;99.90
580;DHT22;276;48.392;9.950;2022-08-21T03:24:19;17.40;99.90
580;DHT22;276;48.392;9.950;2022-08-21T03:26:44;17.40;99.90
580;DHT22;276;48.392;9.950;2022-08-21T03:29:12;17.40;99.90
580;DHT22;276;48.392;9.950;2022-08-21T03:31:40;17.30;99.90
580;DHT22;276;48.392;9.950;2022-08-21T03:34:08;17.30;99.90
580;DHT22;276;48.392;9.950;2022-08-21T03:36:34;17.30;99.90
580;DHT22;276;48.392;9.950;2022-08-21T03:39:02;17.30;99.90
580;DHT22;276;48.392;9.950;2022-08-21T03:41:28;17.30;99.90
580;DHT22;276;48.392;9.950;2022-08-21T03:43:53;17.30;99.90
580;DHT22;276;48.392;9.950;2022-08-21T03:46:21;17.30;99.90
580;DHT22;276;48.392;9.950;2022-08-21T03:48:49;17.30;99.90
580;DHT22;276;48.392;9.950;2022-08-21T03:51:20;17.30;99.90
580;DHT22;276;48.392;9.950;2022-08-21T03:53:48;17.30;99.90
580;DHT22;276;48.392;9.950;2022-08-21T03:56:16;17.30;99.90
580;DHT22;276;48.392;9.950;2022-08-21T03:58:42;17.20;99.90
580;DHT22;276;48.392;9.950;2022-08-21T04:01:07;17.30;99.90
580;DHT22;276;48.392;9.950;2022-08-21T04:03:35;17.20;99.90
580;DHT22;276;48.392;9.950;2022-08-21T04:06:01;17.20;99.90
580;DHT22;276;48.392;9.950;2022-08-21T04:08:26;17.20;99.90
580;DHT22;276;48.392;9.950;2022-08-21T04:10:54;17.20;99.90
580;DHT22;276;48.392;9.950;2022-08-21T04:13:23;17.20;99.90
580;DHT22;276;48.392;9.950;2022-08-21T04:15:54;17.10;99.90
580;DHT22;276;48.392;9.950;2022-08-21T04:18:20;17.10;99.90
580;DHT22;276;48.392;9.950;2022-08-21T04:20:48;17.10;99.90
580;DHT22;276;48.392;9.950;2022-08-21T04:23:15;17.10;99.90
580;DHT22;276;48.392;9.950;2022-08-21T04:25:42;17.10;99.90
580;DHT22;276;48.392;9.950;2022-08-21T04:28:12;17.00;99.90
580;DHT22;276;48.392;9.950;2022-08-21T04:30:38;17.00;99.90
580;DHT22;276;48.392;9.950;2022-08-21T04:33:04;17.00;99.90
580;DHT22;276;48.392;9.950;2022-08-21T04:35:30;17.00;99.90
580;DHT22;276;48.392;9.950;2022-08-21T04:37:56;17.00;99.90
580;DHT22;276;48.392;9.950;2022-08-21T04:40:26;17.00;99.90
580;DHT22;276;48.392;9.950;2022-08-21T04:43:03;17.00;99.90
580;DHT22;276;48.392;9.950;2022-08-21T04:45:35;16.90;99.90
580;DHT22;276;48.392;9.950;2022-08-21T04:48:05;16.90;99.90
580;DHT22;276;48.392;9.950;2022-08-21T04:50:35;16.90;99.90
580;DHT22;276;48.392;9.950;2022-08-21T04:53:03;16.90;99.90
580;DHT22;276;48.392;9.950;2022-08-21T04:55:31;16.90;99.90
580;DHT22;276;48.392;9.950;2022-08-21T04:58:00;16.90;99.90
580;DHT22;276;48.392;9.950;2022-08-21T05:00:26;16.90;99.90
580;DHT22;276;48.392;9.950;2022-08-21T05:02:53;16.90;99.90
580;DHT22;276;48.392;9.950;2022-08-21T05:05:22;16.90;99.90
580;DHT22;276;48.392;9.950;2022-08-21T05:07:51;17.00;99.90
580;DHT22;276;48.392;9.950;2022-08-21T05:10:20;17.00;99.90
580;DHT22;276;48.392;9.950;2022-08-21T05:12:46;17.00;99.90
580;DHT22;276;48.392;9.950;2022-08-21T05:15:12;17.00;99.90
580;DHT22;276;48.392;9.950;2022-08-21T05:17:40;17.00;99.90
580;DHT22;276;48.392;9.950;2022-08-21T05:20:09;17.00;99.90
580;DHT22;276;48.392;9.950;2022-08-21T05:22:36;17.00;99.90
580;DHT22;276;48.392;9.950;2022-08-21T05:25:05;17.00;99.90
580;DHT22;276;48.392;9.950;2022-08-21T05:27:31;17.00;99.90
580;DHT22;276;48.392;9.950;2022-08-21T05:29:57;17.00;99.90
580;DHT22;276;48.392;9.950;2022-08-21T05:32:23;17.00;99.90
580;DHT22;276;48.392;9.950;2022-08-21T05:34:50;17.00;99.90
580;DHT22;276;48.392;9.950;2022-08-21T05:37:15;17.10;99.90
580;DHT22;276;48.392;9.950;2022-08-21T05:39:41;17.10;99.90
580;DHT22;276;48.392;9.950;2022-08-21T05:42:07;17.10;99.90
580;DHT22;276;48.392;9.950;2022-08-21T05:44:33;17.20;99.90
580;DHT22;276;48.392;9.950;2022-08-21T05:47:09;17.30;99.90
580;DHT22;276;48.392;9.950;2022-08-21T05:49:37;17.30;99.90
580;DHT22;276;48.392;9.950;2022-08-21T05:52:03;17.40;99.90
580;DHT22;276;48.392;9.950;2022-08-21T05:54:30;17.40;99.90
580;DHT22;276;48.392;9.950;2022-08-21T05:56:56;17.50;99.90
580;DHT22;276;48.392;9.950;2022-08-21T05:59:27;17.50;99.90
580;DHT22;276;48.392;9.950;2022-08-21T06:01:54;17.60;99.90
580;DHT22;276;48.392;9.950;2022-08-21T06:04:20;17.70;99.90
580;DHT22;276;48.392;9.950;2022-08-21T06:06:46;17.80;99.90
580;DHT22;276;48.392;9.950;2022-08-21T06:09:15;17.80;99.90
580;DHT22;276;48.392;9.950;2022-08-21T06:11:43;17.90;99.90
580;DHT22;276;48.392;9.950;2022-08-21T06:14:08;18.00;99.90
580;DHT22;276;48.392;9.950;2022-08-21T06:16:34;18.10;99.90
580;DHT22;276;48.392;9.950;2022-08-21T06:19:00;18.20;99.90
580;DHT22;276;48.392;9.950;2022-08-21T06:21:26;18.20;99.90
580;DHT22;276;48.392;9.950;2022-08-21T06:23:53;18.30;99.90
580;DHT22;276;48.392;9.950;2022-08-21T06:26:19;18.40;99.90
580;DHT22;276;48.392;9.950;2022-08-21T06:28:47;18.50;99.90
580;DHT22;276;48.392;9.950;2022-08-21T06:31:19;18.60;99.90
580;DHT22;276;48.392;9.950;2022-08-21T06:33:45;18.70;99.90
580;DHT22;276;48.392;9.950;2022-08-21T06:36:11;18.80;99.90
580;DHT22;276;48.392;9.950;2022-08-21T06:38:40;18.80;99.90
580;DHT22;276;48.392;9.950;2022-08-21T06:41:06;18.90;99.90
580;DHT22;276;48.392;9.950;2022-08-21T06:43:32;19.00;99.90
580;DHT22;276;48.392;9.950;2022-08-21T06:45:58;19.10;99.90
580;DHT22;276;48.392;9.950;2022-08-21T06:48:26;19.20;99.90
580;DHT22;276;48.392;9.950;2022-08-21T06:50:54;19.30;99.90
580;DHT22;276;48.392;9.950;2022-08-21T06:53:23;19.40;99.90
580;DHT22;276;48.392;9.950;2022-08-21T06:55:51;19.40;99.90
580;DHT22;276;48.392;9.950;2022-08-21T06:58:19;19.50;99.90
580;DHT22;276;48.392;9.950;2022-08-21T07:00:49;19.60;99.90
580;DHT22;276;48.392;9.950;2022-08-21T07:03:22;19.60;99.90
580;DHT22;276;48.392;9.950;2022-08-21T07:05:49;19.70;99.90
580;DHT22;276;48.392;9.950;2022-08-21T07:08:15;19.80;99.90
580;DHT22;276;48.392;9.950;2022-08-21T07:10:40;19.80;99.90
580;DHT22;276;48.392;9.950;2022-08-21T07:13:06;19.90;99.90
580;DHT22;276;48.392;9.950;2022-08-21T07:15:32;19.90;99.90
580;DHT22;276;48.392;9.950;2022-08-21T07:18:01;20.00;99.90
580;DHT22;276;48.392;9.950;2022-08-21T07:20:30;20.10;99.90
580;DHT22;276;48.392;9.950;2022-08-21T07:22:58;20.20;99.90
580;DHT22;276;48.392;9.950;2022-08-21T07:25:24;20.30;99.90
580;DHT22;276;48.392;9.950;2022-08-21T07:27:53;20.40;99.90
580;DHT22;276;48.392;9.950;2022-08-21T07:30:22;20.40;99.90
580;DHT22;276;48.392;9.950;2022-08-21T07:32:48;20.50;99.90
580;DHT22;276;48.392;9.950;2022-08-21T07:35:20;20.60;99.90
580;DHT22;276;48.392;9.950;2022-08-21T07:37:48;20.70;99.90
580;DHT22;276;48.392;9.950;2022-08-21T07:40:15;20.70;99.90
580;DHT22;276;48.392;9.950;2022-08-21T07:42:44;20.90;99.90
580;DHT22;276;48.392;9.950;2022-08-21T07:45:10;21.00;99.90
580;DHT22;276;48.392;9.950;2022-08-21T07:47:36;21.10;99.90
580;DHT22;276;48.392;9.950;2022-08-21T07:50:08;21.30;99.90
580;DHT22;276;48.392;9.950;2022-08-21T07:52:34;21.40;99.90
580;DHT22;276;48.392;9.950;2022-08-21T07:55:02;21.40;99.90
580;DHT22;276;48.392;9.950;2022-08-21T07:57:28;21.50;99.90
580;DHT22;276;48.392;9.950;2022-08-21T07:59:54;21.60;99.90
580;DHT22;276;48.392;9.950;2022-08-21T08:02:27;21.70;99.90
580;DHT22;276;48.392;9.950;2022-08-21T08:04:53;21.80;99.90
580;DHT22;276;48.392;9.950;2022-08-21T08:07:19;21.90;99.90
580;DHT22;276;48.392;9.950;2022-08-21T08:09:45;22.00;99.90
580;DHT22;276;48.392;9.950;2022-08-21T08:12:11;22.20;99.90
580;DHT22;276;48.392;9.950;2022-08-21T08:14:37;22.20;99.90
580;DHT22;276;48.392;9.950;2022-08-21T08:17:02;22.30;99.90
580;DHT22;276;48.392;9.950;2022-08-21T08:19:28;22.50;99.90
580;DHT22;276;48.392;9.950;2022-08-21T08:21:57;22.60;99.90
580;DHT22;276;48.392;9.950;2022-08-21T08:24:25;22.60;99.90
580;DHT22;276;48.392;9.950;2022-08-21T08:26:53;22.60;99.90
580;DHT22;276;48.392;9.950;2022-08-21T08:29:20;22.80;99.90
580;DHT22;276;48.392;9.950;2022-08-21T08:31:46;22.90;99.90
580;DHT22;276;48.392;9.950;2022-08-21T08:34:12;23.10;99.90
580;DHT22;276;48.392;9.950;2022-08-21T08:36:39;23.20;99.90
580;DHT22;276;48.392;9.950;2022-08-21T08:39:07;23.30;99.90
580;DHT22;276;48.392;9.950;2022-08-21T08:41:36;23.50;99.90
580;DHT22;276;48.392;9.950;2022-08-21T08:44:07;23.70;99.90
580;DHT22;276;48.392;9.950;2022-08-21T08:46:44;23.80;99.90
580;DHT22;276;48.392;9.950;2022-08-21T08:54:33;24.20;99.40
580;DHT22;276;48.392;9.950;2022-08-21T08:57:01;24.30;99.90
580;DHT22;276;48.392;9.950;2022-08-21T08:59:39;24.50;98.00
580;DHT22;276;48.392;9.950;2022-08-21T09:02:11;24.70;96.70
580;DHT22;276;48.392;9.950;2022-08-21T09:04:38;24.80;97.00
580;DHT22;276;48.392;9.950;2022-08-21T09:07:25;24.90;96.60
580;DHT22;276;48.392;9.950;2022-08-21T09:13:20;25.00;94.40
580;DHT22;276;48.392;9.950;2022-08-21T09:27:09;25.40;92.20
580;DHT22;276;48.392;9.950;2022-08-21T09:29:39;25.50;91.50
580;DHT22;276;48.392;9.950;2022-08-21T09:32:17;25.60;90.00
580;DHT22;276;48.392;9.950;2022-08-21T09:37:23;25.50;90.60
580;DHT22;276;48.392;9.950;2022-08-21T09:39:52;25.70;86.70
580;DHT22;276;48.392;9.950;2022-08-21T09:42:26;25.70;84.90
580;DHT22;276;48.392;9.950;2022-08-21T09:45:13;25.80;86.20
580;DHT22;276;48.392;9.950;2022-08-21T09:47:40;25.90;87.50
580;DHT22;276;48.392;9.950;2022-08-21T09:50:35;26.00;86.90
580;DHT22;276;48.392;9.950;2022-08-21T09:53:01;26.20;84.40
580;DHT22;276;48.392;9.950;2022-08-21T09:55:38;26.20;83.60
580;DHT22;276;48.392;9.950;2022-08-21T09:58:31;26.20;84.40
580;DHT22;276;48.392;9.950;2022-08-21T10:01:00;26.30;87.50
580;DHT22;276;48.392;9.950;2022-08-21T10:03:26;26.40;86.30
580;DHT22;276;48.392;9.950;2022-08-21T10:06:01;26.60;87.70
580;DHT22;276;48.392;9.950;2022-08-21T10:08:31;26.70;87.20
580;DHT22;276;48.392;9.950;2022-08-21T10:11:08;26.80;84.70
580;DHT22;276;48.392;9.950;2022-08-21T10:25:12;27.30;77.30
580;DHT22;276;48.392;9.950;2022-08-21T10:30:45;27.30;73.60
580;DHT22;276;48.392;9.950;2022-08-21T10:41:44;27.50;75.00
580;DHT22;276;48.392;9.950;2022-08-21T10:47:22;27.60;75.40
580;DHT22;276;48.392;9.950;2022-08-21T10:49:56;27.60;77.90
580;DHT22;276;48.392;9.950;2022-08-21T10:55:14;27.70;74.80
580;DHT22;276;48.392;9.950;2022-08-21T10:58:06;27.60;77.10
580;DHT22;276;48.392;9.950;2022-08-21T11:03:11;27.70;73.40
580;DHT22;276;48.392;9.950;2022-08-21T11:05:50;27.70;72.90
580;DHT22;276;48.392;9.950;2022-08-21T11:08:29;27.70;74.80
580;DHT22;276;48.392;9.950;2022-08-21T11:11:00;27.70;72.00
580;DHT22;276;48.392;9.950;2022-08-21T11:13:45;27.60;76.60
580;DHT22;276;48.392;9.950;2022-08-21T11:16:37;27.50;74.40
580;DHT22;276;48.392;9.950;2022-08-21T11:19:15;27.50;78.20
580;DHT22;276;48.392;9.950;2022-08-21T11:21:56;27.60;77.80
580;DHT22;276;48.392;9.950;2022-08-21T11:27:03;27.50;76.60
580;DHT22;276;48.392;9.950;2022-08-21T11:29:36;27.30;76.20
580;DHT22;276;48.392;9.950;2022-08-21T11:37:45;27.10;76.20
580;DHT22;276;48.392;9.950;2022-08-21T11:45:53;26.70;75.00
580;DHT22;276;48.392;9.950;2022-08-21T11:48:43;26.60;73.20
580;DHT22;276;48.392;9.950;2022-08-21T11:51:13;26.40;74.50
580;DHT22;276;48.392;9.950;2022-08-21T11:53:51;26.40;76.10
580;DHT22;276;48.392;9.950;2022-08-21T11:56:29;26.30;77.40
580;DHT22;276;48.392;9.950;2022-08-21T11:59:02;26.20;76.80
580;DHT22;276;48.392;9.950;2022-08-21T12:01:37;26.10;78.00
580;DHT22;276;48.392;9.950;2022-08-21T12:04:18;26.20;76.50
580;DHT22;276;48.392;9.950;2022-08-21T12:06:47;26.30;79.20
580;DHT22;276;48.392;9.950;2022-08-21T12:14:43;26.60;76.20
580;DHT22;276;48.392;9.950;2022-08-21T12:17:19;26.60;75.10
580;DHT22;276;48.392;9.950;2022-08-21T12:19:45;26.50;76.10
580;DHT22;276;48.392;9.950;2022-08-21T12:22:13;26.50;77.40
580;DHT22;276;48.392;9.950;2022-08-21T12:24:51;26.50;76.90
580;DHT22;276;48.392;9.950;2022-08-21T12:27:29;26.50;77.50
580;DHT22;276;48.392;9.950;2022-08-21T12:29:58;26.40;76.60
580;DHT22;276;48.392;9.950;2022-08-21T12:33:18;26.40;76.80
580;DHT22;276;48.392;9.950;2022-08-21T12:35:17;26.30;76.70
580;DHT22;276;48.392;9.950;2022-08-21T12:37:46;26.20;77.80
580;DHT22;276;48.392;9.950;2022-08-21T12:40:22;26.20;77.90
580;DHT22;276;48.392;9.950;2022-08-21T12:42:53;26.10;79.20
580;DHT22;276;48.392;9.950;2022-08-21T12:45:33;26.00;80.50
580;DHT22;276;48.392;9.950;2022-08-21T12:48:32;25.90;80.10
580;DHT22;276;48.392;9.950;2022-08-21T12:51:14;25.90;79.90
580;DHT22;276;48.392;9.950;2022-08-21T12:53:49;25.80;79.20
580;DHT22;276;48.392;9.950;2022-08-21T12:56:20;25.80;79.70
580;DHT22;276;48.392;9.950;2022-08-21T12:58:54;25.80;80.40
580;DHT22;276;48.392;9.950;2022-08-21T13:01:38;25.70;81.70
580;DHT22;276;48.392;9.950;2022-08-21T13:04:10;25.60;80.80
580;DHT22;276;48.392;9.950;2022-08-21T13:06:49;25.60;79.00
580;DHT22;276;48.392;9.950;2022-08-21T13:09:26;25.50;79.20
580;DHT22;276;48.392;9.950;2022-08-21T13:11:54;25.50;80.60
580;DHT22;276;48.392;9.950;2022-08-21T13:16:55;25.40;77.20
580;DHT22;276;48.392;9.950;2022-08-21T13:19:23;25.40;75.70
580;DHT22;276;48.392;9.950;2022-08-21T13:21:52;25.30;77.50
580;DHT22;276;48.392;9.950;2022-08-21T13:24:20;25.30;78.20
580;DHT22;276;48.392;9.950;2022-08-21T13:26:50;25.30;79.80
580;DHT22;276;48.392;9.950;2022-08-21T13:29:20;25.40;82.60
580;DHT22;276;48.392;9.950;2022-08-21T13:32:06;25.50;80.30
580;DHT22;276;48.392;9.950;2022-08-21T13:34:35;25.50;80.90
580;DHT22;276;48.392;9.950;2022-08-21T13:37:08;25.60;81.80
580;DHT22;276;48.392;9.950;2022-08-21T13:39:38;25.70;80.20
580;DHT22;276;48.392;9.950;2022-08-21T13:42:10;25.70;81.40
580;DHT22;276;48.392;9.950;2022-08-21T13:44:42;25.80;79.20
580;DHT22;276;48.392;9.950;2022-08-21T13:47:13;25.80;76.60
580;DHT22;276;48.392;9.950;2022-08-21T13:49:51;25.80;77.80
580;DHT22;276;48.392;9.950;2022-08-21T13:52:24;25.80;76.60
580;DHT22;276;48.392;9.950;2022-08-21T13:55:07;25.90;73.80
580;DHT22;276;48.392;9.950;2022-08-21T13:57:34;25.90;72.60
580;DHT22;276;48.392;9.950;2022-08-21T14:02:41;26.00;75.80
580;DHT22;276;48.392;9.950;2022-08-21T14:05:19;26.10;74.60
580;DHT22;276;48.392;9.950;2022-08-21T14:07:48;26.00;74.30
580;DHT22;276;48.392;9.950;2022-08-21T14:10:19;26.00;75.10
580;DHT22;276;48.392;9.950;2022-08-21T14:13:03;25.90;74.30
580;DHT22;276;48.392;9.950;2022-08-21T14:15:32;25.90;72.60
580;DHT22;276;48.392;9.950;2022-08-21T14:18:13;25.90;71.50
580;DHT22;276;48.392;9.950;2022-08-21T14:20:39;25.90;71.10
580;DHT22;276;48.392;9.950;2022-08-21T14:23:05;25.80;72.60
580;DHT22;276;48.392;9.950;2022-08-21T14:25:40;25.70;71.00
580;DHT22;276;48.392;9.950;2022-08-21T14:30:46;25.70;72.90
580;DHT22;276;48.392;9.950;2022-08-21T14:33:26;25.70;73.20
580;DHT22;276;48.392;9.950;2022-08-21T14:35:56;25.70;75.30
580;DHT22;276;48.392;9.950;2022-08-21T14:38:27;25.60;76.60
580;DHT22;276;48.392;9.950;2022-08-21T14:40:56;25.60;77.80
580;DHT22;276;48.392;9.950;2022-08-21T14:43:23;25.70;76.70
580;DHT22;276;48.392;9.950;2022-08-21T14:45:50;25.70;73.80
580;DHT22;276;48.392;9.950;2022-08-21T14:48:18;25.80;75.40
580;DHT22;276;48.392;9.950;2022-08-21T14:50:43;25.80;76.30
580;DHT22;276;48.392;9.950;2022-08-21T14:53:12;25.80;76.20
580;DHT22;276;48.392;9.950;2022-08-21T14:55:39;25.70;75.70
580;DHT22;276;48.392;9.950;2022-08-21T14:58:24;25.70;74.10
580;DHT22;276;48.392;9.950;2022-08-21T15:00:54;25.60;73.90
580;DHT22;276;48.392;9.950;2022-08-21T15:03:20;25.70;72.70
580;DHT22;276;48.392;9.950;2022-08-21T15:05:49;25.60;72.80
580;DHT22;276;48.392;9.950;2022-08-21T15:08:16;25.60;75.50
580;DHT22;276;48.392;9.950;2022-08-21T15:10:42;25.60;77.80
580;DHT22;276;48.392;9.950;2022-08-21T15:13:08;25.70;74.10
580;DHT22;276;48.392;9.950;2022-08-21T15:15:38;25.60;74.30
580;DHT22;276;48.392;9.950;2022-08-21T15:18:07;25.60;74.50
580;DHT22;276;48.392;9.950;2022-08-21T15:20:33;25.60;75.00
580;DHT22;276;48.392;9.950;2022-08-21T15:22:59;25.60;74.40
580;DHT22;276;48.392;9.950;2022-08-21T15:25:24;25.60;73.60
580;DHT22;276;48.392;9.950;2022-08-21T15:27:55;25.60;73.70
580;DHT22;276;48.392;9.950;2022-08-21T15:30:21;25.50;74.50
580;DHT22;276;48.392;9.950;2022-08-21T15:32:47;25.50;74.60
580;DHT22;276;48.392;9.950;2022-08-21T15:35:18;25.50;75.00
580;DHT22;276;48.392;9.950;2022-08-21T15:37:43;25.50;75.40
580;DHT22;276;48.392;9.950;2022-08-21T15:40:10;25.50;76.00
580;DHT22;276;48.392;9.950;2022-08-21T15:42:40;25.50;73.70
580;DHT22;276;48.392;9.950;2022-08-21T15:45:11;25.40;73.80
580;DHT22;276;48.392;9.950;2022-08-21T15:47:43;25.40;74.20
580;DHT22;276;48.392;9.950;2022-08-21T15:50:10;25.40;73.70
580;DHT22;276;48.392;9.950;2022-08-21T15:52:36;25.40;73.90
580;DHT22;276;48.392;9.950;2022-08-21T15:55:05;25.40;74.30
580;DHT22;276;48.392;9.950;2022-08-21T15:57:31;25.30;74.90
580;DHT22;276;48.392;9.950;2022-08-21T16:00:00;25.30;71.60
580;DHT22;276;48.392;9.950;2022-08-21T16:02:35;25.30;72.30
580;DHT22;276;48.392;9.950;2022-08-21T16:05:01;25.20;74.70
580;DHT22;276;48.392;9.950;2022-08-21T16:07:29;25.20;76.40
580;DHT22;276;48.392;9.950;2022-08-21T16:09:55;25.10;76.70
580;DHT22;276;48.392;9.950;2022-08-21T16:12:30;25.10;77.70
580;DHT22;276;48.392;9.950;2022-08-21T16:14:58;25.10;78.70
580;DHT22;276;48.392;9.950;2022-08-21T16:17:31;25.10;76.50
580;DHT22;276;48.392;9.950;2022-08-21T16:19:58;25.10;75.90
580;DHT22;276;48.392;9.950;2022-08-21T16:22:25;25.10;76.60
580;DHT22;276;48.392;9.950;2022-08-21T16:24:52;25.00;76.70
580;DHT22;276;48.392;9.950;2022-08-21T16:27:18;25.00;76.40
580;DHT22;276;48.392;9.950;2022-08-21T16:29:44;25.00;77.40
580;DHT22;276;48.392;9.950;2022-08-21T16:32:10;25.00;77.70
580;DHT22;276;48.392;9.950;2022-08-21T16:34:39;25.00;77.30
580;DHT22;276;48.392;9.950;2022-08-21T16:37:09;25.00;77.50
580;DHT22;276;48.392;9.950;2022-08-21T16:39:35;25.00;76.50
580;DHT22;276;48.392;9.950;2022-08-21T16:42:01;25.00;75.20
580;DHT22;276;48.392;9.950;2022-08-21T16:44:27;25.00;75.10
580;DHT22;276;48.392;9.950;2022-08-21T16:46:55;25.00;75.00
580;DHT22;276;48.392;9.950;2022-08-21T16:49:21;25.00;73.40
580;DHT22;276;48.392;9.950;2022-08-21T16:51:49;24.90;73.90
580;DHT22;276;48.392;9.950;2022-08-21T16:54:15;25.00;76.60
580;DHT22;276;48.392;9.950;2022-08-21T16:56:40;25.00;77.20
580;DHT22;276;48.392;9.950;2022-08-21T16:59:13;24.90;78.30
580;DHT22;276;48.392;9.950;2022-08-21T17:01:39;25.00;78.50
580;DHT22;276;48.392;9.950;2022-08-21T17:04:05;24.90;76.90
580;DHT22;276;48.392;9.950;2022-08-21T17:06:31;24.90;76.90
580;DHT22;276;48.392;9.950;2022-08-21T17:08:57;24.90;76.90
580;DHT22;276;48.392;9.950;2022-08-21T17:14:20;24.90;83.20
580;DHT22;276;48.392;9.950;2022-08-21T17:16:50;24.80;85.00
580;DHT22;276;48.392;9.950;2022-08-21T17:19:17;24.80;84.30
580;DHT22;276;48.392;9.950;2022-08-21T17:21:43;24.70;80.90
580;DHT22;276;48.392;9.950;2022-08-21T17:24:08;24.70;82.80
580;DHT22;276;48.392;9.950;2022-08-21T17:26:35;24.60;82.70
580;DHT22;276;48.392;9.950;2022-08-21T17:29:02;24.60;84.60
580;DHT22;276;48.392;9.950;2022-08-21T17:31:34;24.60;86.00
580;DHT22;276;48.392;9.950;2022-08-21T17:34:01;24.50;87.10
580;DHT22;276;48.392;9.950;2022-08-21T17:36:29;24.40;88.20
580;DHT22;276;48.392;9.950;2022-08-21T17:38:58;24.30;89.00
580;DHT22;276;48.392;9.950;2022-08-21T17:41:24;24.30;90.10
580;DHT22;276;48.392;9.950;2022-08-21T17:43:53;24.20;90.60
580;DHT22;276;48.392;9.950;2022-08-21T17:46:27;24.10;90.90
580;DHT22;276;48.392;9.950;2022-08-21T17:48:55;24.10;91.60
580;DHT22;276;48.392;9.950;2022-08-21T17:51:21;24.00;91.20
580;DHT22;276;48.392;9.950;2022-08-21T17:53:49;23.90;91.00
580;DHT22;276;48.392;9.950;2022-08-21T17:56:17;23.80;91.20
580;DHT22;276;48.392;9.950;2022-08-21T17:58:48;23.70;91.60
580;DHT22;276;48.392;9.950;2022-08-21T18:01:17;23.70;92.10
580;DHT22;276;48.392;9.950;2022-08-21T18:03:43;23.50;92.00
580;DHT22;276;48.392;9.950;2022-08-21T18:06:10;23.50;92.10
580;DHT22;276;48.392;9.950;2022-08-21T18:08:36;23.40;92.40
580;DHT22;276;48.392;9.950;2022-08-21T18:11:03;23.30;92.70
580;DHT22;276;48.392;9.950;2022-08-21T18:13:33;23.30;93.10